sensor_id;sensor_type;location;lat;lon;timestamp;pressure;altitude;pressure_sealevel;temperature;humidity
46223;BME280;31943;51.410;7.564;2022-09-29T00:01:12;98713.63;;;8.99;67.33
46223;BME280;31943;51.410;7.564;2022-09-29T00:03:39;98703.28;;;8.94;67.33
46223;BME280;31943;51.410;7.564;2022-09-29T00:06:11;98712.81;;;8.92;67.02
46223;BME280;31943;51.410;7.564;2022-09-29T00:08:37;98705.03;;;8.89;67.28
46223;BME280;31943;51.410;7.564;2022-09-29T00:11:06;98716.34;;;8.88;67.34
46223;BME280;31943;51.410;7.564;2022-09-29T00:13:32;98712.84;;;8.87;67.40
46223;BME280;31943;51.410;7.564;2022-09-29T00:16:00;98722.38;;;8.88;67.11
46223;BME280;31943;51.410;7.564;2022-09-29T00:18:27;98713.72;;;8.88;67.58
46223;BME280;31943;51.410;7.564;2022-09-29T00:20:59;98719.78;;;8.88;67.30
46223;BME280;31943;51.410;7.564;2022-09-29T00:23:25;98708.53;;;8.88;67.11
46223;BME280;31943;51.410;7.564;2022-09-29T00:26:01;98712.84;;;8.87;67.56
46223;BME280;31943;51.410;7.564;2022-09-29T00:28:28;98701.59;;;8.87;67.46
46223;BME280;31943;51.410;7.564;2022-09-29T00:30:54;98706.78;;;8.85;67.54
46223;BME280;31943;51.410;7.564;2022-09-29T00:33:21;98700.72;;;8.85;67.61
46223;BME280;31943;51.410;7.564;2022-09-29T00:35:55;98699.84;;;8.86;67.92
46223;BME280;31943;51.410;7.564;2022-09-29T00:38:21;98705.94;;;8.83;67.51
46223;BME280;31943;51.410;7.564;2022-09-29T00:40:46;98705.94;;;8.82;67.68
46223;BME280;31943;51.410;7.564;2022-09-29T00:43:19;98704.25;;;8.79;67.33
46223;BME280;31943;51.410;7.564;2022-09-29T00:45:46;98700.78;;;8.79;67.67
46223;BME280;31943;51.410;7.564;2022-09-29T00:48:14;98705.13;;;8.78;67.73
46223;BME280;31943;51.410;7.564;2022-09-29T00:50:46;98707.75;;;8.75;67.13
46223;BME280;31943;51.410;7.564;2022-09-29T00:53:15;98704.28;;;8.75;67.08
46223;BME280;31943;51.410;7.564;2022-09-29T00:55:46;98706.03;;;8.71;67.33
46223;BME280;31943;51.410;7.564;2022-09-29T00:58:18;98712.13;;;8.67;67.10
46223;BME280;31943;51.410;7.564;2022-09-29T01:00:47;98710.41;;;8.66;67.35
46223;BME280;31943;51.410;7.564;2022-09-29T01:03:15;98710.44;;;8.63;67.14
46223;BME280;31943;51.410;7.564;2022-09-29T01:05:45;98716.53;;;8.59;66.79
46223;BME280;31943;51.410;7.564;2022-09-29T01:08:16;98711.34;;;8.57;67.21
46223;BME280;31943;51.410;7.564;2022-09-29T01:10:47;98705.28;;;8.55;67.08
46223;BME280;31943;51.410;7.564;2022-09-29T01:13:15;98710.50;;;8.50;67.03
46223;BME280;31943;51.410;7.564;2022-09-29T01:15:42;98704.44;;;8.50;67.05
46223;BME280;31943;51.410;7.564;2022-09-29T01:18:07;98708.78;;;8.49;67.26
46223;BME280;31943;51.410;7.564;2022-09-29T01:20:40;98703.59;;;8.49;67.27
46223;BME280;31943;51.410;7.564;2022-09-29T01:23:24;98709.66;;;8.48;66.81
46223;BME280;31943;51.410;7.564;2022-09-29T01:26:24;98707.09;;;8.45;66.64
46223;BME280;31943;51.410;7.564;2022-09-29T01:29:19;98718.34;;;8.44;66.65
46223;BME280;31943;51.410;7.564;2022-09-29T01:31:55;98722.69;;;8.38;66.78
46223;BME280;31943;51.410;7.564;2022-09-29T01:34:26;98714.94;;;8.33;66.46
46223;BME280;31943;51.410;7.564;2022-09-29T01:37:04;98716.66;;;8.31;66.75
46223;BME280;31943;51.410;7.564;2022-09-29T01:39:39;98721.03;;;8.27;66.66
46223;BME280;31943;51.410;7.564;2022-09-29T01:42:08;98725.38;;;8.25;66.50
46223;BME280;31943;51.410;7.564;2022-09-29T01:44:43;98723.63;;;8.24;66.51
46223;BME280;31943;51.410;7.564;2022-09-29T01:47:17;98729.72;;;8.22;66.99
46223;BME280;31943;51.410;7.564;2022-09-29T01:49:55;98728.81;;;8.23;66.87
46223;BME280;31943;51.410;7.564;2022-09-29T01:52:22;98723.63;;;8.23;66.87
46223;BME280;31943;51.410;7.564;2022-09-29T01:54:51;98724.50;;;8.22;66.67
46223;BME280;31943;51.410;7.564;2022-09-29T01:57:24;98726.25;;;8.21;67.10
46223;BME280;31943;51.410;7.564;2022-09-29T01:59:56;98721.06;;;8.20;67.01
46223;BME280;31943;51.410;7.564;2022-09-29T02:02:29;98718.47;;;8.18;66.64
46223;BME280;31943;51.410;7.564;2022-09-29T02:05:02;98721.06;;;8.18;67.06
46223;BME280;31943;51.410;7.564;2022-09-29T02:07:34;98719.31;;;8.17;66.83
46223;BME280;31943;51.410;7.564;2022-09-29T02:10:05;98719.34;;;8.16;67.06
46223;BME280;31943;51.410;7.564;2022-09-29T02:12:35;98719.34;;;8.14;66.87
46223;BME280;31943;51.410;7.564;2022-09-29T02:15:05;98713.28;;;8.14;67.09
46223;BME280;31943;51.410;7.564;2022-09-29T02:17:37;98713.28;;;8.14;67.24
46223;BME280;31943;51.410;7.564;2022-09-29T02:20:06;98721.94;;;8.16;67.24
46223;BME280;31943;51.410;7.564;2022-09-29T02:22:33;98720.19;;;8.18;67.50
46223;BME280;31943;51.410;7.564;2022-09-29T02:25:00;98714.97;;;8.19;67.39
46223;BME280;31943;51.410;7.564;2022-09-29T02:27:26;98718.47;;;8.20;67.87
46223;BME280;31943;51.410;7.564;2022-09-29T02:29:53;98722.75;;;8.22;67.54
46223;BME280;31943;51.410;7.564;2022-09-29T02:32:19;98723.63;;;8.23;68.15
46223;BME280;31943;51.410;7.564;2022-09-29T02:34:49;98732.28;;;8.26;68.17
46223;BME280;31943;51.410;7.564;2022-09-29T02:37:26;98727.94;;;8.27;68.19
46223;BME280;31943;51.410;7.564;2022-09-29T02:40:05;98740.06;;;8.29;68.25
46223;BME280;31943;51.410;7.564;2022-09-29T02:42:42;98731.41;;;8.26;68.13
46223;BME280;31943;51.410;7.564;2022-09-29T02:45:27;98733.13;;;8.27;68.27
46223;BME280;31943;51.410;7.564;2022-09-29T02:48:07;98726.19;;;8.29;67.99
46223;BME280;31943;51.410;7.564;2022-09-29T02:50:57;98725.31;;;8.30;68.26
46223;BME280;31943;51.410;7.564;2022-09-29T02:53:33;98733.13;;;8.28;68.10
46223;BME280;31943;51.410;7.564;2022-09-29T02:56:09;98734.84;;;8.31;68.25
46223;BME280;31943;51.410;7.564;2022-09-29T02:58:41;98736.56;;;8.32;68.46
46223;BME280;31943;51.410;7.564;2022-09-29T03:01:12;98735.72;;;8.33;68.32
46223;BME280;31943;51.410;7.564;2022-09-29T03:03:37;98735.69;;;8.35;68.54
46223;BME280;31943;51.410;7.564;2022-09-29T03:06:05;98738.28;;;8.36;68.76
46223;BME280;31943;51.410;7.564;2022-09-29T03:08:31;98732.22;;;8.37;68.61
46223;BME280;31943;51.410;7.564;2022-09-29T03:10:56;98730.50;;;8.36;68.56
46223;BME280;31943;51.410;7.564;2022-09-29T03:13:22;98729.63;;;8.36;68.63
46223;BME280;31943;51.410;7.564;2022-09-29T03:15:48;98727.03;;;8.34;68.71
46223;BME280;31943;51.410;7.564;2022-09-29T03:18:14;98727.94;;;8.33;68.57
46223;BME280;31943;51.410;7.564;2022-09-29T03:20:39;98720.97;;;8.34;68.30
46223;BME280;31943;51.410;7.564;2022-09-29T03:23:07;98722.72;;;8.31;68.60
46223;BME280;31943;51.410;7.564;2022-09-29T03:25:32;98719.28;;;8.28;68.46
46223;BME280;31943;51.410;7.564;2022-09-29T03:28:00;98728.81;;;8.26;68.31
46223;BME280;31943;51.410;7.564;2022-09-29T03:30:25;98721.06;;;8.21;67.99
46223;BME280;31943;51.410;7.564;2022-09-29T03:32:51;98721.06;;;8.18;67.90
46223;BME280;31943;51.410;7.564;2022-09-29T03:35:17;98728.00;;;8.16;68.06
46223;BME280;31943;51.410;7.564;2022-09-29T03:37:42;98727.09;;;8.17;68.23
46223;BME280;31943;51.410;7.564;2022-09-29T03:40:10;98721.94;;;8.16;67.84
46223;BME280;31943;51.410;7.564;2022-09-29T03:42:36;98726.28;;;8.12;67.83
46223;BME280;31943;51.410;7.564;2022-09-29T03:45:02;98727.16;;;8.09;67.99
46223;BME280;31943;51.410;7.564;2022-09-29T03:47:28;98726.31;;;8.06;67.62
46223;BME280;31943;51.410;7.564;2022-09-29T03:49:54;98725.47;;;8.02;67.54
46223;BME280;31943;51.410;7.564;2022-09-29T03:52:20;98727.19;;;8.00;67.52
46223;BME280;31943;51.410;7.564;2022-09-29T03:54:46;98729.81;;;7.97;67.49
46223;BME280;31943;51.410;7.564;2022-09-29T03:57:13;98740.22;;;7.94;67.23
46223;BME280;31943;51.410;7.564;2022-09-29T03:59:38;98732.44;;;7.92;67.33
46223;BME280;31943;51.410;7.564;2022-09-29T04:02:04;98736.75;;;7.86;66.99
46223;BME280;31943;51.410;7.564;2022-09-29T04:04:29;98747.19;;;7.83;67.19
46223;BME280;31943;51.410;7.564;2022-09-29T04:06:55;98743.72;;;7.82;67.40
46223;BME280;31943;51.410;7.564;2022-09-29T04:09:21;98745.47;;;7.80;67.42
46223;BME280;31943;51.410;7.564;2022-09-29T04:11:47;98739.41;;;7.77;67.00
46223;BME280;31943;51.410;7.564;2022-09-29T04:14:14;98739.41;;;7.73;66.87
46223;BME280;31943;51.410;7.564;2022-09-29T04:16:40;98745.47;;;7.71;66.94
46223;BME280;31943;51.410;7.564;2022-09-29T04:19:05;98746.34;;;7.67;66.78
46223;BME280;31943;51.410;7.564;2022-09-29T04:21:31;98746.34;;;7.64;66.79
46223;BME280;31943;51.410;7.564;2022-09-29T04:23:57;98748.09;;;7.62;66.89
46223;BME280;31943;51.410;7.564;2022-09-29T04:26:23;98755.91;;;7.59;66.88
46223;BME280;31943;51.410;7.564;2022-09-29T04:28:48;98761.09;;;7.57;66.84
46223;BME280;31943;51.410;7.564;2022-09-29T04:31:17;98764.53;;;7.56;66.73
46223;BME280;31943;51.410;7.564;2022-09-29T04:33:43;98761.06;;;7.52;66.88
46223;BME280;31943;51.410;7.564;2022-09-29T04:36:09;98764.53;;;7.50;66.47
46223;BME280;31943;51.410;7.564;2022-09-29T04:38:36;98764.56;;;7.47;66.28
46223;BME280;31943;51.410;7.564;2022-09-29T04:41:02;98771.50;;;7.45;66.34
46223;BME280;31943;51.410;7.564;2022-09-29T04:43:28;98769.75;;;7.42;66.72
46223;BME280;31943;51.410;7.564;2022-09-29T04:46:00;98768.00;;;7.43;66.51
46223;BME280;31943;51.410;7.564;2022-09-29T04:48:27;98769.75;;;7.41;66.74
46223;BME280;31943;51.410;7.564;2022-09-29T04:50:53;98770.63;;;7.40;66.29
46223;BME280;31943;51.410;7.564;2022-09-29T04:53:19;98767.16;;;7.38;66.57
46223;BME280;31943;51.410;7.564;2022-09-29T04:55:45;98768.03;;;7.33;66.75
46223;BME280;31943;51.410;7.564;2022-09-29T04:58:11;98775.81;;;7.33;66.24
46223;BME280;31943;51.410;7.564;2022-09-29T05:00:37;98772.38;;;7.30;66.55
46223;BME280;31943;51.410;7.564;2022-09-29T05:03:03;98767.16;;;7.28;66.45
46223;BME280;31943;51.410;7.564;2022-09-29T05:05:30;98780.13;;;7.27;66.14
46223;BME280;31943;51.410;7.564;2022-09-29T05:07:56;98778.41;;;7.24;66.36
46223;BME280;31943;51.410;7.564;2022-09-29T05:10:22;98782.72;;;7.19;66.30
46223;BME280;31943;51.410;7.564;2022-09-29T05:12:48;98776.69;;;7.14;66.31
46223;BME280;31943;51.410;7.564;2022-09-29T05:15:15;98778.41;;;7.10;66.64
46223;BME280;31943;51.410;7.564;2022-09-29T05:17:40;98779.28;;;7.11;66.46
46223;BME280;31943;51.410;7.564;2022-09-29T05:20:07;98773.22;;;7.10;66.10
46223;BME280;31943;51.410;7.564;2022-09-29T05:22:34;98778.41;;;7.10;66.56
46223;BME280;31943;51.410;7.564;2022-09-29T05:25:01;98781.00;;;7.12;66.49
46223;BME280;31943;51.410;7.564;2022-09-29T05:27:26;98790.53;;;7.10;65.86
46223;BME280;31943;51.410;7.564;2022-09-29T05:29:52;98781.88;;;7.06;66.12
46223;BME280;31943;51.410;7.564;2022-09-29T05:32:17;98782.75;;;7.04;65.81
46223;BME280;31943;51.410;7.564;2022-09-29T05:34:43;98786.19;;;7.01;65.92
46223;BME280;31943;51.410;7.564;2022-09-29T05:37:09;98783.59;;;6.98;65.89
46223;BME280;31943;51.410;7.564;2022-09-29T05:39:36;98793.97;;;6.97;65.80
46223;BME280;31943;51.410;7.564;2022-09-29T05:42:02;98800.91;;;6.96;65.68
46223;BME280;31943;51.410;7.564;2022-09-29T05:44:28;98800.03;;;6.94;65.79
46223;BME280;31943;51.410;7.564;2022-09-29T05:46:53;98798.28;;;6.95;65.87
46223;BME280;31943;51.410;7.564;2022-09-29T05:49:19;98805.19;;;6.96;65.61
46223;BME280;31943;51.410;7.564;2022-09-29T05:51:45;98811.25;;;6.95;65.76
46223;BME280;31943;51.410;7.564;2022-09-29T05:54:10;98804.31;;;6.93;65.94
46223;BME280;31943;51.410;7.564;2022-09-29T05:56:38;98806.06;;;6.93;65.74
46223;BME280;31943;51.410;7.564;2022-09-29T05:59:04;98817.31;;;6.92;66.11
46223;BME280;31943;51.410;7.564;2022-09-29T06:01:31;98812.97;;;6.92;65.88
46223;BME280;31943;51.410;7.564;2022-09-29T06:03:57;98815.56;;;6.91;66.08
46223;BME280;31943;51.410;7.564;2022-09-29T06:06:25;98816.44;;;6.93;65.85
46223;BME280;31943;51.410;7.564;2022-09-29T06:08:51;98814.69;;;6.93;66.04
46223;BME280;31943;51.410;7.564;2022-09-29T06:11:18;98816.44;;;6.96;65.73
46223;BME280;31943;51.410;7.564;2022-09-29T06:13:47;98819.03;;;6.98;66.02
46223;BME280;31943;51.410;7.564;2022-09-29T06:16:15;98820.75;;;6.97;65.63
46223;BME280;31943;51.410;7.564;2022-09-29T06:18:41;98821.59;;;6.91;65.67
46223;BME280;31943;51.410;7.564;2022-09-29T06:21:09;98821.59;;;6.85;66.00
46223;BME280;31943;51.410;7.564;2022-09-29T06:23:36;98825.06;;;6.86;65.92
46223;BME280;31943;51.410;7.564;2022-09-29T06:26:06;98825.06;;;6.86;66.42
46223;BME280;31943;51.410;7.564;2022-09-29T06:28:32;98829.41;;;6.90;66.57
46223;BME280;31943;51.410;7.564;2022-09-29T06:31:00;98832.00;;;6.96;66.61
46223;BME280;31943;51.410;7.564;2022-09-29T06:33:26;98836.34;;;7.02;66.64
46223;BME280;31943;51.410;7.564;2022-09-29T06:35:53;98838.09;;;7.06;66.53
46223;BME280;31943;51.410;7.564;2022-09-29T06:38:19;98837.22;;;7.10;66.85
46223;BME280;31943;51.410;7.564;2022-09-29T06:40:45;98836.34;;;7.12;66.98
46223;BME280;31943;51.410;7.564;2022-09-29T06:43:10;98834.63;;;7.15;66.78
46223;BME280;31943;51.410;7.564;2022-09-29T06:45:36;98834.63;;;7.18;66.82
46223;BME280;31943;51.410;7.564;2022-09-29T06:48:04;98835.50;;;7.18;66.75
46223;BME280;31943;51.410;7.564;2022-09-29T06:50:29;98837.22;;;7.19;66.97
46223;BME280;31943;51.410;7.564;2022-09-29T06:52:55;98844.13;;;7.20;67.04
46223;BME280;31943;51.410;7.564;2022-09-29T06:55:21;98835.47;;;7.17;67.25
46223;BME280;31943;51.410;7.564;2022-09-29T06:57:47;98851.91;;;7.14;67.27
46223;BME280;31943;51.410;7.564;2022-09-29T07:00:13;98852.78;;;7.08;67.40
46223;BME280;31943;51.410;7.564;2022-09-29T07:02:39;98851.91;;;7.06;67.76
46223;BME280;31943;51.410;7.564;2022-09-29T07:05:07;98861.41;;;7.10;67.65
46223;BME280;31943;51.410;7.564;2022-09-29T07:07:33;98858.81;;;7.15;67.95
46223;BME280;31943;51.410;7.564;2022-09-29T07:09:59;98863.16;;;7.21;68.30
46223;BME280;31943;51.410;7.564;2022-09-29T07:12:25;98862.31;;;7.28;68.01
46223;BME280;31943;51.410;7.564;2022-09-29T07:14:51;98863.16;;;7.33;68.20
46223;BME280;31943;51.410;7.564;2022-09-29T07:17:17;98863.16;;;7.41;68.33
46223;BME280;31943;51.410;7.564;2022-09-29T07:19:42;98870.97;;;7.45;68.04
46223;BME280;31943;51.410;7.564;2022-09-29T07:22:11;98869.25;;;7.52;68.28
46223;BME280;31943;51.410;7.564;2022-09-29T07:24:37;98867.50;;;7.60;68.36
46223;BME280;31943;51.410;7.564;2022-09-29T07:27:06;98872.72;;;7.66;68.19
46223;BME280;31943;51.410;7.564;2022-09-29T07:29:32;98873.56;;;7.73;67.97
46223;BME280;31943;51.410;7.564;2022-09-29T07:31:57;98871.81;;;7.80;68.13
46223;BME280;31943;51.410;7.564;2022-09-29T07:34:23;98875.28;;;7.85;68.31
46223;BME280;31943;51.410;7.564;2022-09-29T07:36:50;98888.25;;;7.89;68.53
46223;BME280;31943;51.410;7.564;2022-09-29T07:39:19;98883.06;;;7.91;68.70
46223;BME280;31943;51.410;7.564;2022-09-29T07:41:45;98890.00;;;7.95;68.97
46223;BME280;31943;51.410;7.564;2022-09-29T07:44:10;98883.91;;;7.99;69.20
46223;BME280;31943;51.410;7.564;2022-09-29T07:46:36;98881.31;;;8.05;69.44
46223;BME280;31943;51.410;7.564;2022-09-29T07:49:02;98887.38;;;8.12;69.34
46223;BME280;31943;51.410;7.564;2022-09-29T07:51:27;98884.75;;;8.18;69.75
46223;BME280;31943;51.410;7.564;2022-09-29T07:53:53;98879.53;;;8.24;69.62
46223;BME280;31943;51.410;7.564;2022-09-29T07:56:21;98883.00;;;8.29;69.78
46223;BME280;31943;51.410;7.564;2022-09-29T07:58:49;98884.69;;;8.37;69.69
46223;BME280;31943;51.410;7.564;2022-09-29T08:01:15;98888.19;;;8.42;69.64
46223;BME280;31943;51.410;7.564;2022-09-29T08:03:43;98888.16;;;8.46;69.54
46223;BME280;31943;51.410;7.564;2022-09-29T08:06:10;98883.84;;;8.53;69.63
46223;BME280;31943;51.410;7.564;2022-09-29T08:08:36;98882.06;;;8.61;69.34
46223;BME280;31943;51.410;7.564;2022-09-29T08:11:03;98888.94;;;8.71;69.48
46223;BME280;31943;51.410;7.564;2022-09-29T08:13:31;98890.66;;;8.80;69.30
46223;BME280;31943;51.410;7.564;2022-09-29T08:15:59;98887.13;;;8.87;69.47
46223;BME280;31943;51.410;7.564;2022-09-29T08:18:25;98883.63;;;8.95;69.68
46223;BME280;31943;51.410;7.564;2022-09-29T08:20:53;98887.06;;;9.06;69.53
46223;BME280;31943;51.410;7.564;2022-09-29T08:23:19;98888.75;;;9.12;69.81
46223;BME280;31943;51.410;7.564;2022-09-29T08:25:45;98892.19;;;9.18;69.57
46223;BME280;31943;51.410;7.564;2022-09-29T08:28:10;98888.63;;;9.27;69.61
46223;BME280;31943;51.410;7.564;2022-09-29T08:30:39;98892.94;;;9.34;69.08
46223;BME280;31943;51.410;7.564;2022-09-29T08:33:05;98892.00;;;9.46;69.45
46223;BME280;31943;51.410;7.564;2022-09-29T08:35:31;98889.28;;;9.61;69.13
46223;BME280;31943;51.410;7.564;2022-09-29T08:37:57;98894.34;;;9.78;68.81
46223;BME280;31943;51.410;7.564;2022-09-29T08:40:23;98899.38;;;9.98;68.62
46223;BME280;31943;51.410;7.564;2022-09-29T08:42:59;98899.19;;;10.17;68.20
46223;BME280;31943;51.410;7.564;2022-09-29T08:45:36;98906.88;;;10.32;68.03
46223;BME280;31943;51.410;7.564;2022-09-29T08:48:10;98904.09;;;10.51;67.65
46223;BME280;31943;51.410;7.564;2022-09-29T08:50:41;98909.09;;;10.69;67.47
46223;BME280;31943;51.410;7.564;2022-09-29T08:53:13;98906.31;;;10.83;67.23
46223;BME280;31943;51.410;7.564;2022-09-29T08:55:43;98912.28;;;10.93;66.82
46223;BME280;31943;51.410;7.564;2022-09-29T08:58:13;98914.72;;;11.05;66.80
46223;BME280;31943;51.410;7.564;2022-09-29T09:00:42;98906.78;;;11.14;66.59
46223;BME280;31943;51.410;7.564;2022-09-29T09:03:32;98911.72;;;11.33;66.38
46223;BME280;31943;51.410;7.564;2022-09-29T09:06:20;98911.56;;;11.45;66.25
46223;BME280;31943;51.410;7.564;2022-09-29T09:09:02;98909.69;;;11.55;65.76
46223;BME280;31943;51.410;7.564;2022-09-29T09:11:40;98917.34;;;11.65;65.50
46223;BME280;31943;51.410;7.564;2022-09-29T09:14:16;98915.41;;;11.78;65.29
46223;BME280;31943;51.410;7.564;2022-09-29T09:16:57;98920.47;;;11.89;65.10
46223;BME280;31943;51.410;7.564;2022-09-29T09:19:45;98922.00;;;12.02;64.54
46223;BME280;31943;51.410;7.564;2022-09-29T09:22:21;98925.34;;;12.09;64.20
46223;BME280;31943;51.410;7.564;2022-09-29T09:24:54;98921.72;;;12.19;64.35
46223;BME280;31943;51.410;7.564;2022-09-29T09:27:24;98921.41;;;12.35;63.98
46223;BME280;31943;51.410;7.564;2022-09-29T09:29:55;98928.97;;;12.50;63.74
46223;BME280;31943;51.410;7.564;2022-09-29T09:32:28;98919.97;;;12.65;63.40
46223;BME280;31943;51.410;7.564;2022-09-29T09:34:59;98928.97;;;12.50;63.49
46223;BME280;31943;51.410;7.564;2022-09-29T09:37:32;98923.84;;;12.44;61.89
46223;BME280;31943;51.410;7.564;2022-09-29T09:40:04;98921.63;;;12.24;62.19
46223;BME280;31943;51.410;7.564;2022-09-29T09:42:34;98921.59;;;12.25;62.36
46223;BME280;31943;51.410;7.564;2022-09-29T09:45:05;98922.50;;;12.23;62.48
46223;BME280;31943;51.410;7.564;2022-09-29T09:47:39;98924.41;;;12.13;62.47
46223;BME280;31943;51.410;7.564;2022-09-29T09:50:13;98917.19;;;12.29;62.03
46223;BME280;31943;51.410;7.564;2022-09-29T09:52:43;98924.72;;;12.44;60.65
46223;BME280;31943;51.410;7.564;2022-09-29T09:55:14;98926.81;;;12.25;60.98
46223;BME280;31943;51.410;7.564;2022-09-29T10:00:44;98930.59;;;12.09;61.56
46223;BME280;31943;51.410;7.564;2022-09-29T10:03:11;98928.88;;;12.08;61.75
46223;BME280;31943;51.410;7.564;2022-09-29T10:05:41;98928.72;;;12.17;62.25
46223;BME280;31943;51.410;7.564;2022-09-29T10:08:11;98934.28;;;12.47;61.85
46223;BME280;31943;51.410;7.564;2022-09-29T10:10:41;98929.94;;;12.46;61.92
46223;BME280;31943;51.410;7.564;2022-09-29T10:13:11;98925.13;;;12.68;61.48
46223;BME280;31943;51.410;7.564;2022-09-29T10:15:42;98919.09;;;13.08;59.93
46223;BME280;31943;51.410;7.564;2022-09-29T10:18:12;98926.25;;;13.40;59.52
46223;BME280;31943;51.410;7.564;2022-09-29T10:20:41;98924.84;;;13.64;58.09
46223;BME280;31943;51.410;7.564;2022-09-29T10:23:27;98930.69;;;13.76;56.78
46223;BME280;31943;51.410;7.564;2022-09-29T10:25:57;98925.22;;;13.49;56.56
46223;BME280;31943;51.410;7.564;2022-09-29T10:28:25;98923.97;;;13.25;56.81
46223;BME280;31943;51.410;7.564;2022-09-29T10:30:53;98933.00;;;13.10;56.76
46223;BME280;31943;51.410;7.564;2022-09-29T10:33:22;98923.56;;;13.03;56.52
46223;BME280;31943;51.410;7.564;2022-09-29T10:36:04;98923.56;;;13.03;57.15
46223;BME280;31943;51.410;7.564;2022-09-29T10:38:30;98928.06;;;12.96;58.28
46223;BME280;31943;51.410;7.564;2022-09-29T10:40:58;98930.06;;;12.83;58.84
46223;BME280;31943;51.410;7.564;2022-09-29T10:43:25;98928.47;;;12.76;59.35
46223;BME280;31943;51.410;7.564;2022-09-29T10:45:51;98931.38;;;13.04;57.80
46223;BME280;31943;51.410;7.564;2022-09-29T10:48:18;98932.38;;;13.41;56.87
46223;BME280;31943;51.410;7.564;2022-09-29T10:50:51;98928.94;;;13.76;53.73
46223;BME280;31943;51.410;7.564;2022-09-29T10:53:22;98933.41;;;14.07;52.09
46223;BME280;31943;51.410;7.564;2022-09-29T10:55:50;98931.16;;;14.28;51.33
46223;BME280;31943;51.410;7.564;2022-09-29T10:58:21;98933.06;;;14.54;50.56
46223;BME280;31943;51.410;7.564;2022-09-29T11:01:02;98932.50;;;14.75;48.94
46223;BME280;31943;51.410;7.564;2022-09-29T11:03:28;98931.41;;;14.84;49.26
46223;BME280;31943;51.410;7.564;2022-09-29T11:05:58;98932.72;;;14.99;49.65
46223;BME280;31943;51.410;7.564;2022-09-29T11:08:27;98931.53;;;15.09;48.84
46223;BME280;31943;51.410;7.564;2022-09-29T11:11:03;98936.16;;;15.01;47.21
46223;BME280;31943;51.410;7.564;2022-09-29T11:13:38;98936.84;;;15.08;47.35
46223;BME280;31943;51.410;7.564;2022-09-29T11:16:11;98939.41;;;15.09;45.82
46223;BME280;31943;51.410;7.564;2022-09-29T11:18:38;98940.97;;;15.16;46.14
46223;BME280;31943;51.410;7.564;2022-09-29T11:24:17;98941.63;;;15.53;47.49
46223;BME280;31943;51.410;7.564;2022-09-29T11:26:48;98940.66;;;15.55;47.47
46223;BME280;31943;51.410;7.564;2022-09-29T11:29:26;98949.75;;;15.73;46.95
46223;BME280;31943;51.410;7.564;2022-09-29T11:32:14;98945.03;;;15.85;46.22
46223;BME280;31943;51.410;7.564;2022-09-29T11:34:54;98949.63;;;16.05;45.76
46223;BME280;31943;51.410;7.564;2022-09-29T11:37:38;98946.44;;;16.21;44.13
46223;BME280;31943;51.410;7.564;2022-09-29T11:40:10;98945.47;;;16.24;44.44
46223;BME280;31943;51.410;7.564;2022-09-29T11:42:50;98945.06;;;15.83;45.88
46223;BME280;31943;51.410;7.564;2022-09-29T11:45:21;98954.88;;;15.48;47.24
46223;BME280;31943;51.410;7.564;2022-09-29T11:50:47;98957.16;;;15.01;48.01
46223;BME280;31943;51.410;7.564;2022-09-29T11:53:33;98955.88;;;14.85;49.18
46223;BME280;31943;51.410;7.564;2022-09-29T11:56:23;98953.50;;;14.75;49.50
46223;BME280;31943;51.410;7.564;2022-09-29T11:59:10;98953.75;;;14.66;49.80
46223;BME280;31943;51.410;7.564;2022-09-29T12:01:55;98961.88;;;14.58;49.72
46223;BME280;31943;51.410;7.564;2022-09-29T12:04:32;98957.31;;;14.65;49.99
46223;BME280;31943;51.410;7.564;2022-09-29T12:07:10;98953.13;;;15.19;48.39
46223;BME280;31943;51.410;7.564;2022-09-29T12:09:56;98956.97;;;15.67;47.08
46223;BME280;31943;51.410;7.564;2022-09-29T12:12:29;98958.59;;;15.99;46.25
46223;BME280;31943;51.410;7.564;2022-09-29T12:15:12;98963.91;;;16.24;45.73
46223;BME280;31943;51.410;7.564;2022-09-29T12:17:43;98953.44;;;16.48;46.31
46223;BME280;31943;51.410;7.564;2022-09-29T12:20:16;98961.44;;;16.70;46.25
46223;BME280;31943;51.410;7.564;2022-09-29T12:22:45;98963.78;;;16.77;45.33
46223;BME280;31943;51.410;7.564;2022-09-29T12:25:15;98968.72;;;16.88;45.11
46223;BME280;31943;51.410;7.564;2022-09-29T12:27:43;98957.69;;;17.02;45.41
46223;BME280;31943;51.410;7.564;2022-09-29T12:30:14;98962.38;;;17.17;45.33
46223;BME280;31943;51.410;7.564;2022-09-29T12:32:46;98956.84;;;17.02;44.84
46223;BME280;31943;51.410;7.564;2022-09-29T12:35:18;98948.50;;;16.64;44.78
46223;BME280;31943;51.410;7.564;2022-09-29T12:37:53;98959.31;;;16.31;46.10
46223;BME280;31943;51.410;7.564;2022-09-29T12:40:26;98956.72;;;16.02;46.35
46223;BME280;31943;51.410;7.564;2022-09-29T12:42:57;98955.31;;;15.92;47.28
46223;BME280;31943;51.410;7.564;2022-09-29T12:45:28;98963.44;;;15.85;46.07
46223;BME280;31943;51.410;7.564;2022-09-29T12:48:04;98959.47;;;15.70;46.44
46223;BME280;31943;51.410;7.564;2022-09-29T12:50:37;98958.22;;;15.55;46.39
46223;BME280;31943;51.410;7.564;2022-09-29T12:53:08;98968.25;;;15.40;47.18
46223;BME280;31943;51.410;7.564;2022-09-29T12:55:44;98954.53;;;15.31;47.56
46223;BME280;31943;51.410;7.564;2022-09-29T12:58:18;98960.06;;;15.23;46.86
46223;BME280;31943;51.410;7.564;2022-09-29T13:00:50;98951.50;;;15.15;46.90
46223;BME280;31943;51.410;7.564;2022-09-29T13:03:48;98963.06;;;15.09;47.57
46223;BME280;31943;51.410;7.564;2022-09-29T13:06:34;98957.94;;;15.05;47.72
46223;BME280;31943;51.410;7.564;2022-09-29T13:09:23;98956.13;;;15.07;48.19
46223;BME280;31943;51.410;7.564;2022-09-29T13:12:08;98959.63;;;15.07;47.57
46223;BME280;31943;51.410;7.564;2022-09-29T13:14:57;98964.13;;;15.03;46.75
46223;BME280;31943;51.410;7.564;2022-09-29T13:17:40;98965.03;;;15.01;47.07
46223;BME280;31943;51.410;7.564;2022-09-29T13:20:37;98971.00;;;15.08;48.90
46223;BME280;31943;51.410;7.564;2022-09-29T13:23:22;98967.28;;;15.15;48.47
46223;BME280;31943;51.410;7.564;2022-09-29T13:26:00;98965.63;;;15.40;49.05
46223;BME280;31943;51.410;7.564;2022-09-29T13:28:34;98963.78;;;15.44;49.25
46223;BME280;31943;51.410;7.564;2022-09-29T13:31:04;98966.41;;;15.44;49.22
46223;BME280;31943;51.410;7.564;2022-09-29T13:33:32;98973.53;;;15.40;48.89